Superfast Xi — SYCF — position and weather

sailwx.info

Track history (hours):
 
Tides and Currents Weather Stations Pressure Air Temp Water Temp Dewpoint Dewpoint Depression Visibility Wind Speed Wind Dir Waves Ship Positions

Superfast Xi

Last reported at 2016-Aug-24 13:22 UTC. Time now 2016-Aug-25 04:25 UTC.
Position N 38°20' E 020°58'.

Length 200 m; draft 6 m.

Type: Passenger vessel. MMSI: 239918000.

Date/timePositionNaut miles runAvg speedWind from/ knotsBaromVisibWave heightAir tempDewpointWater temp
2016-Aug-24 13:22N 38°20' E 020°58'2123.0
2016-Aug-24 12:28N 38°15' E 021°24'25 0.5
2016-Aug-22 13:33N 38°23' E 020°54'2525.1
2016-Aug-22 12:33N 38°16' E 021°24'8 0.3
2016-Aug-21 11:05N 38°16' E 021°13'16220.8
2016-Aug-21 03:15N 40°23' E 019°03'15627.3
2016-Aug-20 21:33N 42°02' E 016°23'2727.4
2016-Aug-20 20:33N 42°21' E 015°56'2727.2
2016-Aug-20 19:34N 42°39' E 015°29'2727.4
2016-Aug-20 18:33N 42°57' E 015°01'2727.2
2016-Aug-20 17:34N 43°15' E 014°33'2727.0
2016-Aug-20 16:34N 43°32' E 014°04'2121.5
2016-Aug-20 15:33N 43°40' E 013°36'5 4.2
2016-Aug-20 14:24N 43°37' E 013°30'1 0.6
2016-Aug-20 12:33N 43°38' E 013°29'45722.9
2016-Aug-19 16:33N 38°25' E 020°51'2625.6
2016-Aug-19 15:33N 38°15' E 021°22'26016.0
2016-Aug-18 23:21N 41°24' E 017°29'215 7.2
2016-Aug-17 17:33N 38°39' E 020°29'2625.9
2016-Aug-17 16:34N 38°23' E 020°54'2525.4
2016-Aug-17 15:33N 38°15' E 021°25'5 1.2
2016-Aug-17 11:33N 38°15' E 021°19'2626.5
2016-Aug-17 10:33N 38°27' E 020°49'12517.8
2016-Aug-17 03:31N 40°12' E 019°21'2627.5
2016-Aug-17 02:33N 40°29' E 018°55'20527.8
2016-Aug-16 19:11N 42°41' E 015°25'1927.5
2016-Aug-16 18:29N 42°53' E 015°06'2627.6
2016-Aug-16 17:33N 43°10' E 014°39'3027.3
2016-Aug-16 16:28N 43°29' E 014°08'2224.2
2016-Aug-16 15:33N 43°41' E 013°42'9 9.3
2016-Aug-16 14:33N 43°37' E 013°30'0 0.0
2016-Aug-16 13:33N 43°37' E 013°30'0 0.5
2016-Aug-16 12:33N 43°37' E 013°30'1413.8
2016-Aug-16 11:34N 43°41' E 013°48'30327.2
2016-Aug-16 00:26N 40°28' E 019°03'14919.0
2016-Aug-15 16:33N 38°25' E 020°51'2625.8
2016-Aug-15 15:33N 38°15' E 021°21'15210.8
2016-Aug-15 01:26N 40°14' E 019°18'  
Track history (hours):
 
Tides and Currents Weather Stations Pressure Air Temp Water Temp Dewpoint Dewpoint Depression Visibility Wind Speed Wind Dir Waves Ship Positions

Superfast Xi

Last reported at 2016-Aug-24 13:22 UTC. Time now 2016-Aug-25 04:25 UTC.
Position N 38°20' E 020°58'.

Length 200 m; draft 6 m.

Type: Passenger vessel. MMSI: 239918000.

Date/timePositionNaut miles runAvg speedWind from/ knotsBaromVisibWave heightAir tempDewpointWater temp
2016-Aug-24 13:22N 38°20' E 020°58'2123.0
2016-Aug-24 12:28N 38°15' E 021°24'25 0.5
2016-Aug-22 13:33N 38°23' E 020°54'2525.1
2016-Aug-22 12:33N 38°16' E 021°24'8 0.3
2016-Aug-21 11:05N 38°16' E 021°13'16220.8
2016-Aug-21 03:15N 40°23' E 019°03'15627.3
2016-Aug-20 21:33N 42°02' E 016°23'2727.4
2016-Aug-20 20:33N 42°21' E 015°56'2727.2
2016-Aug-20 19:34N 42°39' E 015°29'2727.4
2016-Aug-20 18:33N 42°57' E 015°01'2727.2
2016-Aug-20 17:34N 43°15' E 014°33'2727.0
2016-Aug-20 16:34N 43°32' E 014°04'2121.5
2016-Aug-20 15:33N 43°40' E 013°36'5 4.2
2016-Aug-20 14:24N 43°37' E 013°30'1 0.6
2016-Aug-20 12:33N 43°38' E 013°29'45722.9
2016-Aug-19 16:33N 38°25' E 020°51'2625.6
2016-Aug-19 15:33N 38°15' E 021°22'26016.0
2016-Aug-18 23:21N 41°24' E 017°29'215 7.2
2016-Aug-17 17:33N 38°39' E 020°29'2625.9
2016-Aug-17 16:34N 38°23' E 020°54'2525.4
2016-Aug-17 15:33N 38°15' E 021°25'5 1.2
2016-Aug-17 11:33N 38°15' E 021°19'2626.5
2016-Aug-17 10:33N 38°27' E 020°49'12517.8
2016-Aug-17 03:31N 40°12' E 019°21'2627.5
2016-Aug-17 02:33N 40°29' E 018°55'20527.8
2016-Aug-16 19:11N 42°41' E 015°25'1927.5
2016-Aug-16 18:29N 42°53' E 015°06'2627.6
2016-Aug-16 17:33N 43°10' E 014°39'3027.3
2016-Aug-16 16:28N 43°29' E 014°08'2224.2
2016-Aug-16 15:33N 43°41' E 013°42'9 9.3
2016-Aug-16 14:33N 43°37' E 013°30'0 0.0
2016-Aug-16 13:33N 43°37' E 013°30'0 0.5
2016-Aug-16 12:33N 43°37' E 013°30'1413.8
2016-Aug-16 11:34N 43°41' E 013°48'30327.2
2016-Aug-16 00:26N 40°28' E 019°03'14919.0
2016-Aug-15 16:33N 38°25' E 020°51'2625.8
2016-Aug-15 15:33N 38°15' E 021°21'15210.8
2016-Aug-15 01:26N 40°14' E 019°18'  

Dump ship's entire track history